St Mary's Airport
PASM : rendu visible

Aérodrome :











RETROUVEZ-NOUS SUR...

 
LOGIN :

S'inscrire | Disclaimer

   EN    FR    IT 

 









Légende :    VFR   VFR Marginal   IFR   IFR Intensif   IFR Très Intensif
Visi : 
Plafond : 
>= 8 km
>= 3000ft
5 à 8 km
1000 à 3000 ft
1500m à 5 km
500 à 1000 ft
800 à 1500m
200 à 500 ft
< 800m
< 200 ft
Symboles :   Orages  Brouillard  Fortes neiges  Fortes précipitations  Vent > 20 kt






- Altitude de l'aérodrome : 312 ft
- Code IATA : KSM


PASM - St Mary's

DERNIER METAR :
  • 032007Z AUTO 15010G16KT 2SM -SN BR OVC002 00/00 A3002 RMK AO2 P0000 FZRANO

METARs EXPIRÉS :
  • 031956Z AUTO 15011G15KT 1 1/2SM -SN BR OVC002 00/M01 A3003 RMK AO2 SLP181 P0000 T00001006 FZRANO
  • 031949Z AUTO 15008G15KT 1 1/4SM -SN BR OVC002 M01/M01 A3003 RMK AO2 P0000 FZRANO
  • 031928Z AUTO 16009G15KT 3/4SM -SN BR OVC002 M01/M01 A3004 RMK AO2 P0000 FZRANO
  • 031923Z AUTO 16011G15KT 1 1/4SM -SN BR OVC002 M01/M01 A3004 RMK AO2 P0000 FZRANO
  • 031856Z AUTO 16008KT 3/4SM -SN BR OVC002 M01/M01 A3005 RMK AO2 UPB22E27SNB27 SLP187 P0000 T10061006 FZRANO
  • 031756Z AUTO 18010KT 1/4SM FZFG OVC002 M01/M01 A3007 RMK AO2 SLP191 60000 T10061006 10000 21006 58003 FZRANO

TAF N/A



MET'MAP, la Météo Aéronautique d'un coup d'oeil ! - Copyright ORBIFLY Décembre 2007 - Disclaimer

ORBIFLY MET'MAP TEAM :

Programmation & Développement : Alexandra Zaïnal
Sur une idée originale de : Baudouin d'Aumeries
Assistance à la programmation : Marc-Olivier Méhu
Soutien technique & logistique : Manuel Goepfert

Contact : metmap@orbifly.com




SOURCES & CREDITS :

   NOAA       Earth
Advisory